sensor_id;sensor_type;location;lat;lon;timestamp;temperature;humidity
37232;DHT22;23125;48.156;15.954;2024-03-02T00:00:19;12.20;62.50
37232;DHT22;23125;48.156;15.954;2024-03-02T00:02:49;12.10;62.40
37232;DHT22;23125;48.156;15.954;2024-03-02T00:05:20;12.10;62.50
37232;DHT22;23125;48.156;15.954;2024-03-02T00:07:54;12.10;62.50
37232;DHT22;23125;48.156;15.954;2024-03-02T00:10:30;12.00;62.20
37232;DHT22;23125;48.156;15.954;2024-03-02T00:13:01;12.00;62.40
37232;DHT22;23125;48.156;15.954;2024-03-02T00:15:55;11.90;62.40
37232;DHT22;23125;48.156;15.954;2024-03-02T00:18:27;11.90;62.70
37232;DHT22;23125;48.156;15.954;2024-03-02T00:20:57;11.90;62.80
37232;DHT22;23125;48.156;15.954;2024-03-02T00:23:24;11.80;62.70
37232;DHT22;23125;48.156;15.954;2024-03-02T00:25:54;11.80;62.70
37232;DHT22;23125;48.156;15.954;2024-03-02T00:28:33;11.80;62.70
37232;DHT22;23125;48.156;15.954;2024-03-02T00:31:06;11.70;62.70
37232;DHT22;23125;48.156;15.954;2024-03-02T00:33:38;11.70;62.80
37232;DHT22;23125;48.156;15.954;2024-03-02T00:36:06;11.70;62.80
37232;DHT22;23125;48.156;15.954;2024-03-02T00:38:33;11.70;62.60
37232;DHT22;23125;48.156;15.954;2024-03-02T00:41:04;11.70;62.60
37232;DHT22;23125;48.156;15.954;2024-03-02T00:43:43;11.70;62.80
37232;DHT22;23125;48.156;15.954;2024-03-02T00:46:16;11.70;62.80
37232;DHT22;23125;48.156;15.954;2024-03-02T00:49:03;11.70;62.70
37232;DHT22;23125;48.156;15.954;2024-03-02T00:51:31;11.60;62.90
37232;DHT22;23125;48.156;15.954;2024-03-02T00:54:00;11.60;62.90
37232;DHT22;23125;48.156;15.954;2024-03-02T00:56:27;11.70;63.00
37232;DHT22;23125;48.156;15.954;2024-03-02T00:58:53;11.70;63.10
37232;DHT22;23125;48.156;15.954;2024-03-02T01:01:19;11.70;63.10
37232;DHT22;23125;48.156;15.954;2024-03-02T01:03:45;11.70;63.10
37232;DHT22;23125;48.156;15.954;2024-03-02T01:06:11;11.70;63.00
37232;DHT22;23125;48.156;15.954;2024-03-02T01:08:38;11.70;62.90
37232;DHT22;23125;48.156;15.954;2024-03-02T01:11:04;11.70;62.90
37232;DHT22;23125;48.156;15.954;2024-03-02T01:13:31;11.70;62.80
37232;DHT22;23125;48.156;15.954;2024-03-02T01:15:57;11.60;62.60
37232;DHT22;23125;48.156;15.954;2024-03-02T01:18:24;11.60;62.70
37232;DHT22;23125;48.156;15.954;2024-03-02T01:20:50;11.60;62.80
37232;DHT22;23125;48.156;15.954;2024-03-02T01:23:24;11.60;62.90
37232;DHT22;23125;48.156;15.954;2024-03-02T01:25:51;11.60;62.90
37232;DHT22;23125;48.156;15.954;2024-03-02T01:28:18;11.60;62.80
37232;DHT22;23125;48.156;15.954;2024-03-02T01:30:45;11.60;62.90
37232;DHT22;23125;48.156;15.954;2024-03-02T01:33:10;11.60;62.90
37232;DHT22;23125;48.156;15.954;2024-03-02T01:35:36;11.60;62.80
37232;DHT22;23125;48.156;15.954;2024-03-02T01:38:03;11.60;62.70
37232;DHT22;23125;48.156;15.954;2024-03-02T01:40:33;11.50;62.50
37232;DHT22;23125;48.156;15.954;2024-03-02T01:42:59;11.50;62.30
37232;DHT22;23125;48.156;15.954;2024-03-02T01:45:25;11.40;62.40
37232;DHT22;23125;48.156;15.954;2024-03-02T01:47:51;11.40;62.40
37232;DHT22;23125;48.156;15.954;2024-03-02T01:50:25;11.40;62.30
37232;DHT22;23125;48.156;15.954;2024-03-02T01:52:52;11.30;62.30
37232;DHT22;23125;48.156;15.954;2024-03-02T01:55:18;11.30;62.40
37232;DHT22;23125;48.156;15.954;2024-03-02T01:57:43;11.20;62.20
37232;DHT22;23125;48.156;15.954;2024-03-02T02:00:11;11.20;62.10
37232;DHT22;23125;48.156;15.954;2024-03-02T02:02:37;11.10;62.10
37232;DHT22;23125;48.156;15.954;2024-03-02T02:05:03;11.10;62.20
37232;DHT22;23125;48.156;15.954;2024-03-02T02:07:29;11.00;62.10
37232;DHT22;23125;48.156;15.954;2024-03-02T02:09:55;11.00;62.10
37232;DHT22;23125;48.156;15.954;2024-03-02T02:12:21;10.90;62.00
37232;DHT22;23125;48.156;15.954;2024-03-02T02:14:48;10.90;62.20
37232;DHT22;23125;48.156;15.954;2024-03-02T02:17:16;10.80;62.10
37232;DHT22;23125;48.156;15.954;2024-03-02T02:19:42;10.80;62.10
37232;DHT22;23125;48.156;15.954;2024-03-02T02:22:10;10.70;62.00
37232;DHT22;23125;48.156;15.954;2024-03-02T02:24:43;10.70;62.00
37232;DHT22;23125;48.156;15.954;2024-03-02T02:27:09;10.70;62.20
37232;DHT22;23125;48.156;15.954;2024-03-02T02:29:36;10.60;62.10
37232;DHT22;23125;48.156;15.954;2024-03-02T02:32:02;10.60;62.20
37232;DHT22;23125;48.156;15.954;2024-03-02T02:34:29;10.50;62.20
37232;DHT22;23125;48.156;15.954;2024-03-02T02:36:55;10.50;62.10
37232;DHT22;23125;48.156;15.954;2024-03-02T02:39:22;10.40;61.80
37232;DHT22;23125;48.156;15.954;2024-03-02T02:41:48;10.40;61.80
37232;DHT22;23125;48.156;15.954;2024-03-02T02:44:14;10.30;61.70
37232;DHT22;23125;48.156;15.954;2024-03-02T02:46:41;10.20;61.80
37232;DHT22;23125;48.156;15.954;2024-03-02T02:49:07;10.20;62.00
37232;DHT22;23125;48.156;15.954;2024-03-02T02:51:33;10.10;62.00
37232;DHT22;23125;48.156;15.954;2024-03-02T02:53:59;10.20;62.10
37232;DHT22;23125;48.156;15.954;2024-03-02T02:56:25;10.10;62.00
37232;DHT22;23125;48.156;15.954;2024-03-02T02:58:51;10.10;62.00
37232;DHT22;23125;48.156;15.954;2024-03-02T03:01:17;10.10;61.90
37232;DHT22;23125;48.156;15.954;2024-03-02T03:03:46;10.00;62.00
37232;DHT22;23125;48.156;15.954;2024-03-02T03:06:12;10.00;61.90
37232;DHT22;23125;48.156;15.954;2024-03-02T03:08:38;9.90;61.80
37232;DHT22;23125;48.156;15.954;2024-03-02T03:11:04;9.90;61.80
37232;DHT22;23125;48.156;15.954;2024-03-02T03:13:31;9.80;61.80
37232;DHT22;23125;48.156;15.954;2024-03-02T03:15:57;9.70;61.90
37232;DHT22;23125;48.156;15.954;2024-03-02T03:18:23;9.70;62.00
37232;DHT22;23125;48.156;15.954;2024-03-02T03:20:49;9.60;62.00
37232;DHT22;23125;48.156;15.954;2024-03-02T03:23:15;9.60;62.10
37232;DHT22;23125;48.156;15.954;2024-03-02T03:25:43;9.60;62.10
37232;DHT22;23125;48.156;15.954;2024-03-02T03:28:09;9.50;61.90
37232;DHT22;23125;48.156;15.954;2024-03-02T03:30:39;9.50;61.80
37232;DHT22;23125;48.156;15.954;2024-03-02T03:33:05;9.40;61.60
37232;DHT22;23125;48.156;15.954;2024-03-02T03:35:34;9.40;61.70
37232;DHT22;23125;48.156;15.954;2024-03-02T03:38:00;9.40;61.80
37232;DHT22;23125;48.156;15.954;2024-03-02T03:40:26;9.30;61.70
37232;DHT22;23125;48.156;15.954;2024-03-02T03:42:52;9.30;61.70
37232;DHT22;23125;48.156;15.954;2024-03-02T03:45:18;9.30;61.80
37232;DHT22;23125;48.156;15.954;2024-03-02T03:47:45;9.20;61.70
37232;DHT22;23125;48.156;15.954;2024-03-02T03:50:11;9.20;61.80
37232;DHT22;23125;48.156;15.954;2024-03-02T03:52:38;9.10;61.80
37232;DHT22;23125;48.156;15.954;2024-03-02T03:55:04;9.10;61.90
37232;DHT22;23125;48.156;15.954;2024-03-02T03:57:31;9.00;61.80
37232;DHT22;23125;48.156;15.954;2024-03-02T03:59:56;9.00;61.70
37232;DHT22;23125;48.156;15.954;2024-03-02T04:02:22;9.00;61.70
37232;DHT22;23125;48.156;15.954;2024-03-02T04:04:50;9.00;61.60
37232;DHT22;23125;48.156;15.954;2024-03-02T04:07:16;8.90;61.50
37232;DHT22;23125;48.156;15.954;2024-03-02T04:09:42;8.90;61.20
37232;DHT22;23125;48.156;15.954;2024-03-02T04:12:08;8.80;61.30
37232;DHT22;23125;48.156;15.954;2024-03-02T04:14:34;8.80;61.50
37232;DHT22;23125;48.156;15.954;2024-03-02T04:16:59;8.70;61.70
37232;DHT22;23125;48.156;15.954;2024-03-02T04:19:25;8.70;62.00
37232;DHT22;23125;48.156;15.954;2024-03-02T04:21:51;8.70;62.10
37232;DHT22;23125;48.156;15.954;2024-03-02T04:24:17;8.80;62.30
37232;DHT22;23125;48.156;15.954;2024-03-02T04:26:43;8.80;62.40
37232;DHT22;23125;48.156;15.954;2024-03-02T04:29:09;8.80;62.40
37232;DHT22;23125;48.156;15.954;2024-03-02T04:31:35;8.80;62.50
37232;DHT22;23125;48.156;15.954;2024-03-02T04:34:00;8.80;62.50
37232;DHT22;23125;48.156;15.954;2024-03-02T04:36:26;8.80;62.40
37232;DHT22;23125;48.156;15.954;2024-03-02T04:38:52;8.80;62.60
37232;DHT22;23125;48.156;15.954;2024-03-02T04:41:18;8.80;62.70
37232;DHT22;23125;48.156;15.954;2024-03-02T04:43:44;8.90;62.90
37232;DHT22;23125;48.156;15.954;2024-03-02T04:46:10;8.90;62.80
37232;DHT22;23125;48.156;15.954;2024-03-02T04:48:36;8.90;62.60
37232;DHT22;23125;48.156;15.954;2024-03-02T04:51:02;8.90;62.50
37232;DHT22;23125;48.156;15.954;2024-03-02T04:53:28;8.90;62.70
37232;DHT22;23125;48.156;15.954;2024-03-02T04:55:54;8.90;62.90
37232;DHT22;23125;48.156;15.954;2024-03-02T04:58:38;8.90;62.90
37232;DHT22;23125;48.156;15.954;2024-03-02T05:01:04;9.00;63.10
37232;DHT22;23125;48.156;15.954;2024-03-02T05:03:30;8.90;63.30
37232;DHT22;23125;48.156;15.954;2024-03-02T05:05:56;9.00;63.40
37232;DHT22;23125;48.156;15.954;2024-03-02T05:08:21;9.00;63.40
37232;DHT22;23125;48.156;15.954;2024-03-02T05:10:47;9.10;63.50
37232;DHT22;23125;48.156;15.954;2024-03-02T05:13:13;9.10;63.40
37232;DHT22;23125;48.156;15.954;2024-03-02T05:15:39;9.10;63.40
37232;DHT22;23125;48.156;15.954;2024-03-02T05:18:06;9.20;63.70
37232;DHT22;23125;48.156;15.954;2024-03-02T05:20:32;9.20;63.70
37232;DHT22;23125;48.156;15.954;2024-03-02T05:22:57;9.20;63.70
37232;DHT22;23125;48.156;15.954;2024-03-02T05:25:23;9.20;63.70
37232;DHT22;23125;48.156;15.954;2024-03-02T05:27:49;9.30;63.80
37232;DHT22;23125;48.156;15.954;2024-03-02T05:30:15;9.30;63.90
37232;DHT22;23125;48.156;15.954;2024-03-02T05:32:41;9.30;63.90
37232;DHT22;23125;48.156;15.954;2024-03-02T05:35:07;9.40;63.90
37232;DHT22;23125;48.156;15.954;2024-03-02T05:37:34;9.40;64.00
37232;DHT22;23125;48.156;15.954;2024-03-02T05:39:59;9.50;64.10
37232;DHT22;23125;48.156;15.954;2024-03-02T05:42:26;9.50;64.10
37232;DHT22;23125;48.156;15.954;2024-03-02T05:44:52;9.50;64.10
37232;DHT22;23125;48.156;15.954;2024-03-02T05:47:18;9.60;64.10
37232;DHT22;23125;48.156;15.954;2024-03-02T05:49:44;9.60;64.10
37232;DHT22;23125;48.156;15.954;2024-03-02T05:52:10;9.70;64.10
37232;DHT22;23125;48.156;15.954;2024-03-02T05:54:37;9.70;64.20
37232;DHT22;23125;48.156;15.954;2024-03-02T05:57:03;9.70;64.20
37232;DHT22;23125;48.156;15.954;2024-03-02T05:59:42;9.80;64.30
37232;DHT22;23125;48.156;15.954;2024-03-02T06:02:09;9.80;64.20
37232;DHT22;23125;48.156;15.954;2024-03-02T06:04:35;9.80;64.30
37232;DHT22;23125;48.156;15.954;2024-03-02T06:07:01;9.90;64.30
37232;DHT22;23125;48.156;15.954;2024-03-02T06:09:26;9.90;64.20
37232;DHT22;23125;48.156;15.954;2024-03-02T06:11:52;9.90;64.30
37232;DHT22;23125;48.156;15.954;2024-03-02T06:14:18;9.90;64.30
37232;DHT22;23125;48.156;15.954;2024-03-02T06:16:44;10.00;64.40
37232;DHT22;23125;48.156;15.954;2024-03-02T06:19:10;10.00;64.40
37232;DHT22;23125;48.156;15.954;2024-03-02T06:21:35;10.10;64.50
37232;DHT22;23125;48.156;15.954;2024-03-02T06:24:01;10.10;64.60
37232;DHT22;23125;48.156;15.954;2024-03-02T06:26:27;10.10;64.70
37232;DHT22;23125;48.156;15.954;2024-03-02T06:28:54;10.10;65.30
37232;DHT22;23125;48.156;15.954;2024-03-02T06:31:20;10.20;64.80
37232;DHT22;23125;48.156;15.954;2024-03-02T06:33:46;10.20;64.90
37232;DHT22;23125;48.156;15.954;2024-03-02T06:36:12;10.30;65.00
37232;DHT22;23125;48.156;15.954;2024-03-02T06:38:38;10.30;64.90
37232;DHT22;23125;48.156;15.954;2024-03-02T06:41:07;10.30;64.90
37232;DHT22;23125;48.156;15.954;2024-03-02T06:43:33;10.30;64.60
37232;DHT22;23125;48.156;15.954;2024-03-02T06:45:59;10.30;64.70
37232;DHT22;23125;48.156;15.954;2024-03-02T06:48:25;10.40;65.00
37232;DHT22;23125;48.156;15.954;2024-03-02T06:50:51;10.40;65.20
37232;DHT22;23125;48.156;15.954;2024-03-02T06:53:17;10.40;65.30
37232;DHT22;23125;48.156;15.954;2024-03-02T06:55:45;10.50;65.40
37232;DHT22;23125;48.156;15.954;2024-03-02T06:58:14;10.50;65.40
37232;DHT22;23125;48.156;15.954;2024-03-02T07:00:43;10.60;65.60
37232;DHT22;23125;48.156;15.954;2024-03-02T07:03:10;10.70;65.90
37232;DHT22;23125;48.156;15.954;2024-03-02T07:05:36;10.80;65.90
37232;DHT22;23125;48.156;15.954;2024-03-02T07:08:02;10.80;65.90
37232;DHT22;23125;48.156;15.954;2024-03-02T07:10:29;10.90;65.90
37232;DHT22;23125;48.156;15.954;2024-03-02T07:12:55;10.90;65.60
37232;DHT22;23125;48.156;15.954;2024-03-02T07:15:21;11.00;65.70
37232;DHT22;23125;48.156;15.954;2024-03-02T07:17:52;11.00;65.50
37232;DHT22;23125;48.156;15.954;2024-03-02T07:20:18;11.10;65.80
37232;DHT22;23125;48.156;15.954;2024-03-02T07:22:44;11.20;65.90
37232;DHT22;23125;48.156;15.954;2024-03-02T07:25:10;11.20;66.00
37232;DHT22;23125;48.156;15.954;2024-03-02T07:27:36;11.30;65.90
37232;DHT22;23125;48.156;15.954;2024-03-02T07:30:03;11.40;66.10
37232;DHT22;23125;48.156;15.954;2024-03-02T07:32:29;11.50;66.70
37232;DHT22;23125;48.156;15.954;2024-03-02T07:34:55;11.60;66.50
37232;DHT22;23125;48.156;15.954;2024-03-02T07:37:22;11.70;66.60
37232;DHT22;23125;48.156;15.954;2024-03-02T07:39:49;11.90;66.70
37232;DHT22;23125;48.156;15.954;2024-03-02T07:42:14;12.00;67.00
37232;DHT22;23125;48.156;15.954;2024-03-02T07:44:41;12.10;67.00
37232;DHT22;23125;48.156;15.954;2024-03-02T07:47:08;12.30;67.70
37232;DHT22;23125;48.156;15.954;2024-03-02T07:49:34;12.60;67.70
37232;DHT22;23125;48.156;15.954;2024-03-02T07:52:00;12.80;67.50
37232;DHT22;23125;48.156;15.954;2024-03-02T07:54:26;13.00;67.70
37232;DHT22;23125;48.156;15.954;2024-03-02T07:56:52;13.20;67.90
37232;DHT22;23125;48.156;15.954;2024-03-02T07:59:18;13.50;67.60
37232;DHT22;23125;48.156;15.954;2024-03-02T08:01:44;13.70;66.70
37232;DHT22;23125;48.156;15.954;2024-03-02T08:04:10;13.80;66.50
37232;DHT22;23125;48.156;15.954;2024-03-02T08:06:36;14.00;66.70
37232;DHT22;23125;48.156;15.954;2024-03-02T08:09:02;14.30;66.80
37232;DHT22;23125;48.156;15.954;2024-03-02T08:11:35;14.50;67.00
37232;DHT22;23125;48.156;15.954;2024-03-02T08:14:01;14.80;66.50
37232;DHT22;23125;48.156;15.954;2024-03-02T08:16:27;15.00;66.10
37232;DHT22;23125;48.156;15.954;2024-03-02T08:18:53;15.20;66.00
37232;DHT22;23125;48.156;15.954;2024-03-02T08:21:19;15.40;65.30
37232;DHT22;23125;48.156;15.954;2024-03-02T08:23:46;15.60;64.90
37232;DHT22;23125;48.156;15.954;2024-03-02T08:26:12;15.70;64.60
37232;DHT22;23125;48.156;15.954;2024-03-02T08:28:39;15.90;64.20
37232;DHT22;23125;48.156;15.954;2024-03-02T08:31:08;16.00;63.80
37232;DHT22;23125;48.156;15.954;2024-03-02T08:33:35;16.10;63.20
37232;DHT22;23125;48.156;15.954;2024-03-02T08:36:01;16.20;61.40
37232;DHT22;23125;48.156;15.954;2024-03-02T08:38:27;16.20;60.10
37232;DHT22;23125;48.156;15.954;2024-03-02T08:40:53;16.30;61.50
37232;DHT22;23125;48.156;15.954;2024-03-02T08:43:19;16.40;61.70
37232;DHT22;23125;48.156;15.954;2024-03-02T08:45:45;16.50;61.90
37232;DHT22;23125;48.156;15.954;2024-03-02T08:48:13;16.70;61.30
37232;DHT22;23125;48.156;15.954;2024-03-02T08:50:38;16.80;60.90
37232;DHT22;23125;48.156;15.954;2024-03-02T08:53:04;16.90;59.60
37232;DHT22;23125;48.156;15.954;2024-03-02T08:55:30;17.00;59.90
37232;DHT22;23125;48.156;15.954;2024-03-02T08:57:57;17.10;59.90
37232;DHT22;23125;48.156;15.954;2024-03-02T09:00:23;17.20;59.80
37232;DHT22;23125;48.156;15.954;2024-03-02T09:02:50;17.40;59.90
37232;DHT22;23125;48.156;15.954;2024-03-02T09:05:16;17.50;59.60
37232;DHT22;23125;48.156;15.954;2024-03-02T09:07:42;17.60;58.10
37232;DHT22;23125;48.156;15.954;2024-03-02T09:10:09;17.50;58.00
37232;DHT22;23125;48.156;15.954;2024-03-02T09:12:35;17.50;57.60
37232;DHT22;23125;48.156;15.954;2024-03-02T09:15:02;17.50;58.00
37232;DHT22;23125;48.156;15.954;2024-03-02T09:17:32;17.60;58.30
37232;DHT22;23125;48.156;15.954;2024-03-02T09:19:57;17.70;58.10
37232;DHT22;23125;48.156;15.954;2024-03-02T09:22:23;17.70;58.00
37232;DHT22;23125;48.156;15.954;2024-03-02T09:24:50;17.80;57.80
37232;DHT22;23125;48.156;15.954;2024-03-02T09:27:15;17.90;58.10
37232;DHT22;23125;48.156;15.954;2024-03-02T09:29:41;17.90;57.40
37232;DHT22;23125;48.156;15.954;2024-03-02T09:32:11;18.00;57.30
37232;DHT22;23125;48.156;15.954;2024-03-02T09:34:37;18.10;57.40
37232;DHT22;23125;48.156;15.954;2024-03-02T09:37:03;18.10;57.50
37232;DHT22;23125;48.156;15.954;2024-03-02T09:39:30;18.10;56.60
37232;DHT22;23125;48.156;15.954;2024-03-02T09:41:57;18.10;56.80
37232;DHT22;23125;48.156;15.954;2024-03-02T09:44:24;18.20;56.80
37232;DHT22;23125;48.156;15.954;2024-03-02T09:46:51;18.20;56.70
37232;DHT22;23125;48.156;15.954;2024-03-02T09:49:18;18.30;56.60
37232;DHT22;23125;48.156;15.954;2024-03-02T09:51:47;18.30;56.10
37232;DHT22;23125;48.156;15.954;2024-03-02T09:54:16;18.30;55.50
37232;DHT22;23125;48.156;15.954;2024-03-02T09:56:43;18.20;55.00
37232;DHT22;23125;48.156;15.954;2024-03-02T09:59:09;18.10;54.90
37232;DHT22;23125;48.156;15.954;2024-03-02T10:01:35;18.10;55.40
37232;DHT22;23125;48.156;15.954;2024-03-02T10:04:01;18.10;55.60
37232;DHT22;23125;48.156;15.954;2024-03-02T10:06:30;18.10;55.30
37232;DHT22;23125;48.156;15.954;2024-03-02T10:08:56;18.10;55.00
37232;DHT22;23125;48.156;15.954;2024-03-02T10:11:27;18.10;55.10
37232;DHT22;23125;48.156;15.954;2024-03-02T10:14:09;18.10;55.10
37232;DHT22;23125;48.156;15.954;2024-03-02T10:16:43;18.10;55.00
37232;DHT22;23125;48.156;15.954;2024-03-02T10:19:20;18.10;55.10
37232;DHT22;23125;48.156;15.954;2024-03-02T10:21:48;18.10;55.30
37232;DHT22;23125;48.156;15.954;2024-03-02T10:24:18;18.30;55.30
37232;DHT22;23125;48.156;15.954;2024-03-02T10:26:45;18.40;55.50
37232;DHT22;23125;48.156;15.954;2024-03-02T10:29:11;18.40;55.20
37232;DHT22;23125;48.156;15.954;2024-03-02T10:31:39;18.50;54.70
37232;DHT22;23125;48.156;15.954;2024-03-02T10:34:06;18.50;54.50
37232;DHT22;23125;48.156;15.954;2024-03-02T10:36:34;18.60;54.50
37232;DHT22;23125;48.156;15.954;2024-03-02T10:39:03;18.60;54.00
37232;DHT22;23125;48.156;15.954;2024-03-02T10:41:32;18.50;53.40
37232;DHT22;23125;48.156;15.954;2024-03-02T10:44:05;18.50;53.90
37232;DHT22;23125;48.156;15.954;2024-03-02T10:46:32;18.60;53.80
37232;DHT22;23125;48.156;15.954;2024-03-02T10:49:00;18.60;54.00
37232;DHT22;23125;48.156;15.954;2024-03-02T10:51:27;18.70;53.70
37232;DHT22;23125;48.156;15.954;2024-03-02T10:53:58;18.70;53.70
37232;DHT22;23125;48.156;15.954;2024-03-02T10:56:38;18.80;53.90
37232;DHT22;23125;48.156;15.954;2024-03-02T10:59:20;18.90;53.70
37232;DHT22;23125;48.156;15.954;2024-03-02T11:01:48;19.00;53.60
37232;DHT22;23125;48.156;15.954;2024-03-02T11:04:17;19.10;53.70
37232;DHT22;23125;48.156;15.954;2024-03-02T11:06:48;19.20;53.90
37232;DHT22;23125;48.156;15.954;2024-03-02T11:09:20;19.30;53.90
37232;DHT22;23125;48.156;15.954;2024-03-02T11:12:02;19.50;53.80
37232;DHT22;23125;48.156;15.954;2024-03-02T11:14:30;19.60;53.40
37232;DHT22;23125;48.156;15.954;2024-03-02T11:16:59;19.70;53.00
37232;DHT22;23125;48.156;15.954;2024-03-02T11:19:26;19.70;52.40
37232;DHT22;23125;48.156;15.954;2024-03-02T11:21:53;19.70;52.20
37232;DHT22;23125;48.156;15.954;2024-03-02T11:26:49;19.70;52.10
37232;DHT22;23125;48.156;15.954;2024-03-02T11:32:17;19.70;52.00
37232;DHT22;23125;48.156;15.954;2024-03-02T11:34:45;19.60;50.10
37232;DHT22;23125;48.156;15.954;2024-03-02T11:37:19;19.50;48.70
37232;DHT22;23125;48.156;15.954;2024-03-02T11:39:50;19.40;48.50
37232;DHT22;23125;48.156;15.954;2024-03-02T11:42:17;19.20;48.40
37232;DHT22;23125;48.156;15.954;2024-03-02T11:44:47;19.20;49.50
37232;DHT22;23125;48.156;15.954;2024-03-02T11:47:17;19.20;49.20
37232;DHT22;23125;48.156;15.954;2024-03-02T11:49:49;19.20;49.40
37232;DHT22;23125;48.156;15.954;2024-03-02T11:52:16;19.20;49.50
37232;DHT22;23125;48.156;15.954;2024-03-02T11:54:47;19.30;48.90
37232;DHT22;23125;48.156;15.954;2024-03-02T11:57:16;19.20;49.00
37232;DHT22;23125;48.156;15.954;2024-03-02T11:59:42;19.20;48.30
37232;DHT22;23125;48.156;15.954;2024-03-02T12:02:18;19.10;47.60
37232;DHT22;23125;48.156;15.954;2024-03-02T12:04:46;19.00;47.60
37232;DHT22;23125;48.156;15.954;2024-03-02T12:07:18;18.90;47.60
37232;DHT22;23125;48.156;15.954;2024-03-02T12:09:46;18.90;47.70
37232;DHT22;23125;48.156;15.954;2024-03-02T12:12:12;18.80;47.70
37232;DHT22;23125;48.156;15.954;2024-03-02T12:14:50;18.70;47.80
37232;DHT22;23125;48.156;15.954;2024-03-02T12:17:17;18.60;48.10
37232;DHT22;23125;48.156;15.954;2024-03-02T12:19:44;18.60;48.10
37232;DHT22;23125;48.156;15.954;2024-03-02T12:22:10;18.50;48.10
37232;DHT22;23125;48.156;15.954;2024-03-02T12:24:36;18.50;48.00
37232;DHT22;23125;48.156;15.954;2024-03-02T12:27:05;18.30;48.00
37232;DHT22;23125;48.156;15.954;2024-03-02T12:29:31;18.20;48.00
37232;DHT22;23125;48.156;15.954;2024-03-02T12:31:57;18.00;48.40
37232;DHT22;23125;48.156;15.954;2024-03-02T12:34:23;17.90;48.60
37232;DHT22;23125;48.156;15.954;2024-03-02T12:36:49;17.70;48.90
37232;DHT22;23125;48.156;15.954;2024-03-02T12:39:19;17.70;49.20
37232;DHT22;23125;48.156;15.954;2024-03-02T12:41:49;17.60;50.20
37232;DHT22;23125;48.156;15.954;2024-03-02T12:44:20;17.50;49.90
37232;DHT22;23125;48.156;15.954;2024-03-02T12:46:46;17.40;50.20
37232;DHT22;23125;48.156;15.954;2024-03-02T12:49:14;17.30;50.30
37232;DHT22;23125;48.156;15.954;2024-03-02T12:51:44;17.10;50.60
37232;DHT22;23125;48.156;15.954;2024-03-02T12:54:12;17.10;50.90
37232;DHT22;23125;48.156;15.954;2024-03-02T12:56:41;17.00;51.20
37232;DHT22;23125;48.156;15.954;2024-03-02T12:59:18;17.00;51.40
37232;DHT22;23125;48.156;15.954;2024-03-02T13:01:54;16.90;51.90
37232;DHT22;23125;48.156;15.954;2024-03-02T13:04:26;16.80;52.00
37232;DHT22;23125;48.156;15.954;2024-03-02T13:06:55;16.60;52.40
37232;DHT22;23125;48.156;15.954;2024-03-02T13:09:24;16.60;52.80
37232;DHT22;23125;48.156;15.954;2024-03-02T13:11:54;16.50;53.00
37232;DHT22;23125;48.156;15.954;2024-03-02T13:14:23;16.40;53.40
37232;DHT22;23125;48.156;15.954;2024-03-02T13:16:50;16.30;53.80
37232;DHT22;23125;48.156;15.954;2024-03-02T13:19:19;16.30;53.90
37232;DHT22;23125;48.156;15.954;2024-03-02T13:21:45;16.20;54.20
37232;DHT22;23125;48.156;15.954;2024-03-02T13:24:10;16.20;54.60
37232;DHT22;23125;48.156;15.954;2024-03-02T13:26:36;16.00;54.90
37232;DHT22;23125;48.156;15.954;2024-03-02T13:29:02;16.00;55.20
37232;DHT22;23125;48.156;15.954;2024-03-02T13:31:28;15.90;55.50
37232;DHT22;23125;48.156;15.954;2024-03-02T13:33:54;15.90;55.60
37232;DHT22;23125;48.156;15.954;2024-03-02T13:36:20;15.90;55.90
37232;DHT22;23125;48.156;15.954;2024-03-02T13:38:46;16.00;55.90
37232;DHT22;23125;48.156;15.954;2024-03-02T13:41:12;16.00;56.00
37232;DHT22;23125;48.156;15.954;2024-03-02T13:43:37;16.00;56.00
37232;DHT22;23125;48.156;15.954;2024-03-02T13:46:04;16.00;56.10
37232;DHT22;23125;48.156;15.954;2024-03-02T13:48:30;16.10;56.20
37232;DHT22;23125;48.156;15.954;2024-03-02T13:50:56;16.00;56.20
37232;DHT22;23125;48.156;15.954;2024-03-02T13:53:22;16.00;56.40
37232;DHT22;23125;48.156;15.954;2024-03-02T13:55:49;15.90;56.40
37232;DHT22;23125;48.156;15.954;2024-03-02T13:58:15;16.00;56.60
37232;DHT22;23125;48.156;15.954;2024-03-02T14:00:41;15.90;56.60
37232;DHT22;23125;48.156;15.954;2024-03-02T14:03:07;15.90;56.80
37232;DHT22;23125;48.156;15.954;2024-03-02T14:05:33;15.80;56.90
37232;DHT22;23125;48.156;15.954;2024-03-02T14:07:59;15.80;57.10
37232;DHT22;23125;48.156;15.954;2024-03-02T14:10:28;15.80;57.10
37232;DHT22;23125;48.156;15.954;2024-03-02T14:12:54;15.90;57.30
37232;DHT22;23125;48.156;15.954;2024-03-02T14:15:22;15.80;57.10
37232;DHT22;23125;48.156;15.954;2024-03-02T14:17:48;15.80;57.00
37232;DHT22;23125;48.156;15.954;2024-03-02T14:20:14;15.80;57.10
37232;DHT22;23125;48.156;15.954;2024-03-02T14:22:40;15.80;57.20
37232;DHT22;23125;48.156;15.954;2024-03-02T14:25:07;15.60;57.30
37232;DHT22;23125;48.156;15.954;2024-03-02T14:27:33;15.70;57.60
37232;DHT22;23125;48.156;15.954;2024-03-02T14:29:58;15.60;57.50
37232;DHT22;23125;48.156;15.954;2024-03-02T14:32:24;15.70;57.80
37232;DHT22;23125;48.156;15.954;2024-03-02T14:34:50;15.70;57.80
37232;DHT22;23125;48.156;15.954;2024-03-02T14:37:16;15.70;57.80
37232;DHT22;23125;48.156;15.954;2024-03-02T14:39:42;15.70;57.80
37232;DHT22;23125;48.156;15.954;2024-03-02T14:42:08;15.70;57.90
37232;DHT22;23125;48.156;15.954;2024-03-02T14:44:34;15.70;57.90
37232;DHT22;23125;48.156;15.954;2024-03-02T14:47:03;15.70;57.90
37232;DHT22;23125;48.156;15.954;2024-03-02T14:49:32;15.60;57.90
37232;DHT22;23125;48.156;15.954;2024-03-02T14:52:01;15.60;58.00
37232;DHT22;23125;48.156;15.954;2024-03-02T14:54:27;15.60;58.00
37232;DHT22;23125;48.156;15.954;2024-03-02T14:56:53;15.70;58.30
37232;DHT22;23125;48.156;15.954;2024-03-02T14:59:19;15.70;58.30
37232;DHT22;23125;48.156;15.954;2024-03-02T15:01:44;15.70;58.30
37232;DHT22;23125;48.156;15.954;2024-03-02T15:04:12;15.60;58.30
37232;DHT22;23125;48.156;15.954;2024-03-02T15:06:37;15.60;58.50
37232;DHT22;23125;48.156;15.954;2024-03-02T15:09:03;15.50;58.60
37232;DHT22;23125;48.156;15.954;2024-03-02T15:11:29;15.60;58.60
37232;DHT22;23125;48.156;15.954;2024-03-02T15:13:55;15.60;58.60
37232;DHT22;23125;48.156;15.954;2024-03-02T15:16:22;15.60;58.70
37232;DHT22;23125;48.156;15.954;2024-03-02T15:18:48;15.50;58.60
37232;DHT22;23125;48.156;15.954;2024-03-02T15:21:14;15.50;58.70
37232;DHT22;23125;48.156;15.954;2024-03-02T15:23:39;15.50;58.80
37232;DHT22;23125;48.156;15.954;2024-03-02T15:26:05;15.50;58.70